sensor_id;sensor_type;location;lat;lon;timestamp;pressure;altitude;pressure_sealevel;temperature;humidity
73242;BME280;65659;49.234;-2.094;2023-05-09T00:01:05;100470.04;;;18.59;52.27
73242;BME280;65659;49.234;-2.094;2023-05-09T00:03:27;100465.77;;;18.69;51.93
73242;BME280;65659;49.234;-2.094;2023-05-09T00:05:52;100467.12;;;18.35;52.13
73242;BME280;65659;49.234;-2.094;2023-05-09T00:08:18;100470.90;;;18.56;52.10
73242;BME280;65659;49.234;-2.094;2023-05-09T00:10:44;100471.29;;;18.63;51.90
73242;BME280;65659;49.234;-2.094;2023-05-09T00:13:10;100465.68;;;18.51;52.06
73242;BME280;65659;49.234;-2.094;2023-05-09T00:15:36;100462.32;;;18.46;52.15
73242;BME280;65659;49.234;-2.094;2023-05-09T00:18:01;100467.20;;;18.51;51.99
73242;BME280;65659;49.234;-2.094;2023-05-09T00:20:27;100469.51;;;18.46;52.11
73242;BME280;65659;49.234;-2.094;2023-05-09T00:22:53;100469.58;;;18.68;52.18
73242;BME280;65659;49.234;-2.094;2023-05-09T00:25:19;100460.20;;;18.44;52.13
73242;BME280;65659;49.234;-2.094;2023-05-09T00:27:45;100461.60;;;18.27;52.31
73242;BME280;65659;49.234;-2.094;2023-05-09T00:30:11;100460.86;;;18.60;52.10
73242;BME280;65659;49.234;-2.094;2023-05-09T00:32:36;100459.19;;;18.66;51.89
73242;BME280;65659;49.234;-2.094;2023-05-09T00:35:02;100453.38;;;18.35;52.10
73242;BME280;65659;49.234;-2.094;2023-05-09T00:37:34;100456.93;;;18.36;52.00
73242;BME280;65659;49.234;-2.094;2023-05-09T00:39:54;100447.75;;;18.58;52.05
73242;BME280;65659;49.234;-2.094;2023-05-09T00:42:19;100446.38;;;18.61;52.09
73242;BME280;65659;49.234;-2.094;2023-05-09T00:44:45;100443.65;;;18.59;52.01
73242;BME280;65659;49.234;-2.094;2023-05-09T00:47:11;100443.87;;;18.57;52.09
73242;BME280;65659;49.234;-2.094;2023-05-09T00:49:37;100450.46;;;18.33;51.98
73242;BME280;65659;49.234;-2.094;2023-05-09T00:52:03;100446.42;;;18.47;51.96
73242;BME280;65659;49.234;-2.094;2023-05-09T00:54:29;100440.14;;;18.02;51.96
73242;BME280;65659;49.234;-2.094;2023-05-09T00:56:54;100439.67;;;18.49;52.03
73242;BME280;65659;49.234;-2.094;2023-05-09T00:59:20;100433.15;;;18.22;51.96
73242;BME280;65659;49.234;-2.094;2023-05-09T01:01:46;100425.09;;;18.24;51.93
73242;BME280;65659;49.234;-2.094;2023-05-09T01:04:12;100423.89;;;18.28;51.79
73242;BME280;65659;49.234;-2.094;2023-05-09T01:06:43;100423.46;;;18.23;51.88
73242;BME280;65659;49.234;-2.094;2023-05-09T01:09:09;100421.56;;;18.01;52.13
73242;BME280;65659;49.234;-2.094;2023-05-09T01:11:32;100419.25;;;18.17;51.85
73242;BME280;65659;49.234;-2.094;2023-05-09T01:14:02;100418.62;;;18.62;51.81
73242;BME280;65659;49.234;-2.094;2023-05-09T01:16:25;100415.52;;;18.42;51.71
73242;BME280;65659;49.234;-2.094;2023-05-09T01:18:51;100411.66;;;18.08;51.76
73242;BME280;65659;49.234;-2.094;2023-05-09T01:21:15;100412.03;;;18.17;51.88
73242;BME280;65659;49.234;-2.094;2023-05-09T01:23:59;100410.74;;;18.09;51.56
73242;BME280;65659;49.234;-2.094;2023-05-09T01:26:04;100413.96;;;18.08;51.63
73242;BME280;65659;49.234;-2.094;2023-05-09T01:28:40;100410.28;;;18.22;51.80
73242;BME280;65659;49.234;-2.094;2023-05-09T01:30:55;100407.72;;;18.03;51.82
73242;BME280;65659;49.234;-2.094;2023-05-09T01:33:22;100405.58;;;18.25;51.86
73242;BME280;65659;49.234;-2.094;2023-05-09T01:35:50;100403.81;;;18.26;51.97
73242;BME280;65659;49.234;-2.094;2023-05-09T01:38:17;100403.92;;;18.06;51.88
73242;BME280;65659;49.234;-2.094;2023-05-09T01:40:39;100401.46;;;18.17;51.95
73242;BME280;65659;49.234;-2.094;2023-05-09T01:43:07;100398.38;;;18.49;51.79
73242;BME280;65659;49.234;-2.094;2023-05-09T01:45:30;100397.82;;;18.45;51.86
73242;BME280;65659;49.234;-2.094;2023-05-09T01:47:56;100394.02;;;18.28;52.08
73242;BME280;65659;49.234;-2.094;2023-05-09T01:50:22;100396.31;;;18.08;52.05
73242;BME280;65659;49.234;-2.094;2023-05-09T01:52:49;100398.04;;;18.08;52.08
73242;BME280;65659;49.234;-2.094;2023-05-09T01:55:14;100398.70;;;17.89;51.89
73242;BME280;65659;49.234;-2.094;2023-05-09T01:57:39;100396.11;;;18.05;51.89
73242;BME280;65659;49.234;-2.094;2023-05-09T02:00:08;100396.16;;;18.22;51.90
73242;BME280;65659;49.234;-2.094;2023-05-09T02:02:31;100401.55;;;18.12;51.83
73242;BME280;65659;49.234;-2.094;2023-05-09T02:04:56;100397.79;;;18.10;51.60
73242;BME280;65659;49.234;-2.094;2023-05-09T02:07:23;100393.24;;;17.94;51.52
73242;BME280;65659;49.234;-2.094;2023-05-09T02:09:49;100392.98;;;17.88;51.65
73242;BME280;65659;49.234;-2.094;2023-05-09T02:12:14;100389.75;;;18.10;51.62
73242;BME280;65659;49.234;-2.094;2023-05-09T02:14:40;100403.31;;;18.14;51.59
73242;BME280;65659;49.234;-2.094;2023-05-09T02:17:05;100392.57;;;17.82;51.48
73242;BME280;65659;49.234;-2.094;2023-05-09T02:19:33;100392.59;;;17.97;51.55
73242;BME280;65659;49.234;-2.094;2023-05-09T02:21:57;100396.04;;;17.96;51.34
73242;BME280;65659;49.234;-2.094;2023-05-09T02:24:23;100402.69;;;17.76;51.49
73242;BME280;65659;49.234;-2.094;2023-05-09T02:26:49;100401.58;;;17.85;51.32
73242;BME280;65659;49.234;-2.094;2023-05-09T02:29:16;100396.05;;;17.78;51.39
73242;BME280;65659;49.234;-2.094;2023-05-09T02:31:41;100394.42;;;17.68;51.43
73242;BME280;65659;49.234;-2.094;2023-05-09T02:34:07;100386.57;;;17.64;51.40
73242;BME280;65659;49.234;-2.094;2023-05-09T02:36:32;100392.44;;;17.64;51.36
73242;BME280;65659;49.234;-2.094;2023-05-09T02:38:58;100393.69;;;17.62;51.29
73242;BME280;65659;49.234;-2.094;2023-05-09T02:41:25;100388.28;;;17.61;51.24
73242;BME280;65659;49.234;-2.094;2023-05-09T02:43:49;100385.95;;;17.58;51.24
73242;BME280;65659;49.234;-2.094;2023-05-09T02:46:15;100388.84;;;17.53;51.12
73242;BME280;65659;49.234;-2.094;2023-05-09T02:48:41;100393.49;;;17.47;51.32
73242;BME280;65659;49.234;-2.094;2023-05-09T02:51:07;100392.69;;;17.46;51.31
73242;BME280;65659;49.234;-2.094;2023-05-09T02:53:32;100392.01;;;17.46;51.25
73242;BME280;65659;49.234;-2.094;2023-05-09T02:55:58;100392.50;;;17.39;51.33
73242;BME280;65659;49.234;-2.094;2023-05-09T02:58:24;100396.52;;;17.42;51.24
73242;BME280;65659;49.234;-2.094;2023-05-09T03:00:50;100395.20;;;17.42;51.26
73242;BME280;65659;49.234;-2.094;2023-05-09T03:03:16;100393.51;;;17.37;51.31
73242;BME280;65659;49.234;-2.094;2023-05-09T03:05:42;100394.92;;;17.38;51.40
73242;BME280;65659;49.234;-2.094;2023-05-09T03:08:08;100392.04;;;17.42;51.34
73242;BME280;65659;49.234;-2.094;2023-05-09T03:10:33;100392.16;;;17.39;51.35
73242;BME280;65659;49.234;-2.094;2023-05-09T03:12:58;100389.00;;;17.35;51.18
73242;BME280;65659;49.234;-2.094;2023-05-09T03:15:24;100387.50;;;17.32;51.13
73242;BME280;65659;49.234;-2.094;2023-05-09T03:17:50;100392.09;;;17.19;51.15
73242;BME280;65659;49.234;-2.094;2023-05-09T03:20:16;100391.80;;;17.23;51.01
73242;BME280;65659;49.234;-2.094;2023-05-09T03:22:42;100388.42;;;17.18;51.04
73242;BME280;65659;49.234;-2.094;2023-05-09T03:25:08;100389.94;;;17.13;51.15
73242;BME280;65659;49.234;-2.094;2023-05-09T03:27:33;100391.10;;;17.03;51.30
73242;BME280;65659;49.234;-2.094;2023-05-09T03:29:59;100386.89;;;17.08;51.23
73242;BME280;65659;49.234;-2.094;2023-05-09T03:32:26;100389.15;;;17.04;51.28
73242;BME280;65659;49.234;-2.094;2023-05-09T03:34:51;100390.97;;;17.01;51.35
73242;BME280;65659;49.234;-2.094;2023-05-09T03:37:17;100390.99;;;16.75;51.32
73242;BME280;65659;49.234;-2.094;2023-05-09T03:39:42;100391.39;;;17.00;51.23
73242;BME280;65659;49.234;-2.094;2023-05-09T03:42:08;100384.92;;;16.98;51.27
73242;BME280;65659;49.234;-2.094;2023-05-09T03:44:33;100382.61;;;16.93;51.42
73242;BME280;65659;49.234;-2.094;2023-05-09T03:46:59;100388.20;;;17.19;51.41
73242;BME280;65659;49.234;-2.094;2023-05-09T03:49:24;100385.90;;;16.90;51.56
73242;BME280;65659;49.234;-2.094;2023-05-09T03:51:50;100387.47;;;16.84;51.61
73242;BME280;65659;49.234;-2.094;2023-05-09T03:54:15;100386.23;;;17.10;51.48
73242;BME280;65659;49.234;-2.094;2023-05-09T03:56:41;100377.84;;;16.81;51.55
73242;BME280;65659;49.234;-2.094;2023-05-09T03:59:07;100366.25;;;17.31;51.61
73242;BME280;65659;49.234;-2.094;2023-05-09T04:01:32;100363.38;;;17.10;51.57
73242;BME280;65659;49.234;-2.094;2023-05-09T04:03:58;100358.97;;;16.89;51.60
73242;BME280;65659;49.234;-2.094;2023-05-09T04:06:24;100354.96;;;17.39;51.56
73242;BME280;65659;49.234;-2.094;2023-05-09T04:08:50;100355.92;;;17.39;51.65
73242;BME280;65659;49.234;-2.094;2023-05-09T04:11:16;100352.17;;;16.96;51.63
73242;BME280;65659;49.234;-2.094;2023-05-09T04:13:41;100355.93;;;16.96;51.64
73242;BME280;65659;49.234;-2.094;2023-05-09T04:16:08;100355.37;;;17.24;51.61
73242;BME280;65659;49.234;-2.094;2023-05-09T04:18:33;100354.37;;;17.47;51.65
73242;BME280;65659;49.234;-2.094;2023-05-09T04:20:59;100352.53;;;17.21;51.69
73242;BME280;65659;49.234;-2.094;2023-05-09T04:23:25;100348.22;;;16.99;51.61
73242;BME280;65659;49.234;-2.094;2023-05-09T04:25:50;100346.47;;;17.48;51.52
73242;BME280;65659;49.234;-2.094;2023-05-09T04:28:16;100346.61;;;17.01;51.41
73242;BME280;65659;49.234;-2.094;2023-05-09T04:30:41;100342.60;;;17.27;51.29
73242;BME280;65659;49.234;-2.094;2023-05-09T04:33:07;100342.48;;;17.34;51.14
73242;BME280;65659;49.234;-2.094;2023-05-09T04:35:32;100346.63;;;17.11;51.18
73242;BME280;65659;49.234;-2.094;2023-05-09T04:37:58;100349.93;;;17.10;51.21
73242;BME280;65659;49.234;-2.094;2023-05-09T04:40:29;100350.75;;;17.13;51.22
73242;BME280;65659;49.234;-2.094;2023-05-09T04:42:49;100341.23;;;17.15;51.25
73242;BME280;65659;49.234;-2.094;2023-05-09T04:45:15;100339.78;;;17.12;51.26
73242;BME280;65659;49.234;-2.094;2023-05-09T04:47:41;100335.47;;;17.36;51.24
73242;BME280;65659;49.234;-2.094;2023-05-09T04:50:09;100333.92;;;17.11;51.27
73242;BME280;65659;49.234;-2.094;2023-05-09T04:52:33;100329.24;;;17.41;51.25
73242;BME280;65659;49.234;-2.094;2023-05-09T04:54:59;100329.74;;;17.11;51.36
73242;BME280;65659;49.234;-2.094;2023-05-09T04:57:24;100327.34;;;17.39;51.32
73242;BME280;65659;49.234;-2.094;2023-05-09T04:59:50;100326.68;;;17.16;51.34
73242;BME280;65659;49.234;-2.094;2023-05-09T05:02:16;100323.17;;;17.58;51.38
73242;BME280;65659;49.234;-2.094;2023-05-09T05:04:42;100325.41;;;17.43;51.33
73242;BME280;65659;49.234;-2.094;2023-05-09T05:07:08;100326.18;;;17.19;51.33
73242;BME280;65659;49.234;-2.094;2023-05-09T05:09:34;100324.12;;;17.22;51.34
73242;BME280;65659;49.234;-2.094;2023-05-09T05:11:59;100321.64;;;17.48;51.32
73242;BME280;65659;49.234;-2.094;2023-05-09T05:14:25;100316.78;;;17.26;51.29
73242;BME280;65659;49.234;-2.094;2023-05-09T05:16:51;100317.74;;;17.28;51.29
73242;BME280;65659;49.234;-2.094;2023-05-09T05:19:17;100318.06;;;17.32;51.29
73242;BME280;65659;49.234;-2.094;2023-05-09T05:21:43;100323.09;;;17.33;51.34
73242;BME280;65659;49.234;-2.094;2023-05-09T05:24:08;100325.19;;;17.39;51.32
73242;BME280;65659;49.234;-2.094;2023-05-09T05:26:34;100326.92;;;17.43;51.32
73242;BME280;65659;49.234;-2.094;2023-05-09T05:29:00;100322.02;;;17.44;51.31
73242;BME280;65659;49.234;-2.094;2023-05-09T05:31:26;100321.25;;;17.45;51.45
73242;BME280;65659;49.234;-2.094;2023-05-09T05:33:52;100318.72;;;17.53;51.38
73242;BME280;65659;49.234;-2.094;2023-05-09T05:36:18;100315.77;;;17.52;51.31
73242;BME280;65659;49.234;-2.094;2023-05-09T05:38:43;100316.99;;;17.52;51.27
73242;BME280;65659;49.234;-2.094;2023-05-09T05:41:09;100315.41;;;17.30;51.24
73242;BME280;65659;49.234;-2.094;2023-05-09T05:43:35;100316.41;;;17.50;51.36
73242;BME280;65659;49.234;-2.094;2023-05-09T05:46:01;100316.50;;;17.54;51.31
73242;BME280;65659;49.234;-2.094;2023-05-09T05:48:27;100313.15;;;17.58;51.33
73242;BME280;65659;49.234;-2.094;2023-05-09T05:50:52;100316.61;;;17.60;51.37
73242;BME280;65659;49.234;-2.094;2023-05-09T05:53:18;100316.29;;;17.61;51.49
73242;BME280;65659;49.234;-2.094;2023-05-09T05:55:44;100314.33;;;17.57;51.66
73242;BME280;65659;49.234;-2.094;2023-05-09T05:58:10;100313.66;;;16.63;51.58
73242;BME280;65659;49.234;-2.094;2023-05-09T06:00:36;100317.23;;;17.77;51.30
73242;BME280;65659;49.234;-2.094;2023-05-09T06:03:01;100320.64;;;17.75;51.39
73242;BME280;65659;49.234;-2.094;2023-05-09T06:05:27;100321.67;;;17.67;51.61
73242;BME280;65659;49.234;-2.094;2023-05-09T06:07:53;100323.47;;;17.72;51.56
73242;BME280;65659;49.234;-2.094;2023-05-09T06:10:19;100321.15;;;17.23;51.52
73242;BME280;65659;49.234;-2.094;2023-05-09T06:12:45;100319.61;;;17.80;51.48
73242;BME280;65659;49.234;-2.094;2023-05-09T06:15:11;100322.08;;;17.74;51.66
73242;BME280;65659;49.234;-2.094;2023-05-09T06:17:36;100323.68;;;17.78;51.72
73242;BME280;65659;49.234;-2.094;2023-05-09T06:20:03;100322.75;;;17.82;51.66
73242;BME280;65659;49.234;-2.094;2023-05-09T06:22:28;100319.34;;;17.87;51.63
73242;BME280;65659;49.234;-2.094;2023-05-09T06:24:54;100317.37;;;17.61;51.74
73242;BME280;65659;49.234;-2.094;2023-05-09T06:27:20;100316.82;;;17.79;51.87
73242;BME280;65659;49.234;-2.094;2023-05-09T06:29:45;100319.64;;;17.94;51.68
73242;BME280;65659;49.234;-2.094;2023-05-09T06:32:11;100315.93;;;18.01;51.60
73242;BME280;65659;49.234;-2.094;2023-05-09T06:34:37;100311.03;;;17.71;51.83
73242;BME280;65659;49.234;-2.094;2023-05-09T06:37:03;100313.56;;;18.10;51.71
73242;BME280;65659;49.234;-2.094;2023-05-09T06:39:29;100313.56;;;18.11;51.69
73242;BME280;65659;49.234;-2.094;2023-05-09T06:41:54;100310.00;;;17.93;51.55
73242;BME280;65659;49.234;-2.094;2023-05-09T06:44:20;100314.23;;;17.96;51.58
73242;BME280;65659;49.234;-2.094;2023-05-09T06:46:46;100312.43;;;18.25;51.53
73242;BME280;65659;49.234;-2.094;2023-05-09T06:49:12;100312.16;;;17.77;51.61
73242;BME280;65659;49.234;-2.094;2023-05-09T06:51:38;100315.92;;;18.03;51.59
73242;BME280;65659;49.234;-2.094;2023-05-09T06:54:03;100315.17;;;18.27;51.65
73242;BME280;65659;49.234;-2.094;2023-05-09T06:56:29;100315.35;;;17.88;51.49
73242;BME280;65659;49.234;-2.094;2023-05-09T06:58:55;100317.71;;;17.97;51.73
73242;BME280;65659;49.234;-2.094;2023-05-09T07:01:21;100316.97;;;17.91;51.29
73242;BME280;65659;49.234;-2.094;2023-05-09T07:03:47;100313.95;;;18.43;51.33
73242;BME280;65659;49.234;-2.094;2023-05-09T07:06:13;100312.16;;;17.84;51.46
73242;BME280;65659;49.234;-2.094;2023-05-09T07:08:39;100308.64;;;17.98;51.34
73242;BME280;65659;49.234;-2.094;2023-05-09T07:11:04;100305.54;;;17.93;51.49
73242;BME280;65659;49.234;-2.094;2023-05-09T07:13:29;100305.84;;;17.92;51.53
73242;BME280;65659;49.234;-2.094;2023-05-09T07:15:54;100302.97;;;17.98;51.55
73242;BME280;65659;49.234;-2.094;2023-05-09T07:18:20;100299.91;;;18.33;51.49
73242;BME280;65659;49.234;-2.094;2023-05-09T07:20:46;100298.59;;;18.41;51.58
73242;BME280;65659;49.234;-2.094;2023-05-09T07:23:12;100289.30;;;18.25;51.77
73242;BME280;65659;49.234;-2.094;2023-05-09T07:25:38;100291.51;;;18.58;51.66
73242;BME280;65659;49.234;-2.094;2023-05-09T07:28:04;100288.87;;;18.43;51.62
73242;BME280;65659;49.234;-2.094;2023-05-09T07:30:29;100294.10;;;18.24;51.29
73242;BME280;65659;49.234;-2.094;2023-05-09T07:32:55;100296.76;;;18.51;51.18
73242;BME280;65659;49.234;-2.094;2023-05-09T07:35:21;100292.89;;;18.76;51.24
73242;BME280;65659;49.234;-2.094;2023-05-09T07:37:47;100290.67;;;18.59;51.16
73242;BME280;65659;49.234;-2.094;2023-05-09T07:40:13;100288.92;;;18.60;51.21
73242;BME280;65659;49.234;-2.094;2023-05-09T07:42:38;100292.30;;;18.52;51.01
73242;BME280;65659;49.234;-2.094;2023-05-09T07:45:09;100288.35;;;18.54;50.90
73242;BME280;65659;49.234;-2.094;2023-05-09T07:47:30;100292.13;;;18.55;51.08
73242;BME280;65659;49.234;-2.094;2023-05-09T07:49:56;100292.14;;;18.80;51.03
73242;BME280;65659;49.234;-2.094;2023-05-09T07:52:22;100286.51;;;18.85;51.01
73242;BME280;65659;49.234;-2.094;2023-05-09T07:54:48;100289.96;;;18.78;50.88
73242;BME280;65659;49.234;-2.094;2023-05-09T07:57:13;100289.19;;;18.56;50.79
73242;BME280;65659;49.234;-2.094;2023-05-09T07:59:39;100289.77;;;18.75;50.78
73242;BME280;65659;49.234;-2.094;2023-05-09T08:02:05;100290.06;;;18.75;50.83
73242;BME280;65659;49.234;-2.094;2023-05-09T08:04:30;100288.56;;;18.85;50.86
73242;BME280;65659;49.234;-2.094;2023-05-09T08:06:56;100288.52;;;18.72;50.92
73242;BME280;65659;49.234;-2.094;2023-05-09T08:09:22;100280.72;;;18.97;51.09
73242;BME280;65659;49.234;-2.094;2023-05-09T08:11:48;100286.37;;;18.64;51.02
73242;BME280;65659;49.234;-2.094;2023-05-09T08:14:13;100278.32;;;18.81;50.82
73242;BME280;65659;49.234;-2.094;2023-05-09T08:16:39;100270.70;;;18.64;50.75
73242;BME280;65659;49.234;-2.094;2023-05-09T08:19:05;100270.39;;;18.60;50.83
73242;BME280;65659;49.234;-2.094;2023-05-09T08:21:31;100272.34;;;18.79;50.63
73242;BME280;65659;49.234;-2.094;2023-05-09T08:23:56;100266.91;;;18.89;50.75
73242;BME280;65659;49.234;-2.094;2023-05-09T08:26:22;100264.32;;;18.86;50.55
73242;BME280;65659;49.234;-2.094;2023-05-09T08:28:48;100266.64;;;18.94;50.60
73242;BME280;65659;49.234;-2.094;2023-05-09T08:31:14;100267.79;;;19.04;50.28
73242;BME280;65659;49.234;-2.094;2023-05-09T08:33:40;100267.90;;;19.11;50.12
73242;BME280;65659;49.234;-2.094;2023-05-09T08:36:06;100265.34;;;19.39;50.30
73242;BME280;65659;49.234;-2.094;2023-05-09T08:38:31;100259.05;;;19.14;50.23
73242;BME280;65659;49.234;-2.094;2023-05-09T08:41:01;100260.70;;;18.96;50.30
73242;BME280;65659;49.234;-2.094;2023-05-09T08:43:23;100260.98;;;19.33;49.67
73242;BME280;65659;49.234;-2.094;2023-05-09T08:45:53;100261.37;;;19.29;49.86
73242;BME280;65659;49.234;-2.094;2023-05-09T08:48:15;100255.02;;;19.09;50.06
73242;BME280;65659;49.234;-2.094;2023-05-09T08:50:41;100262.00;;;19.35;49.76
73242;BME280;65659;49.234;-2.094;2023-05-09T08:53:09;100260.10;;;19.51;49.49
73242;BME280;65659;49.234;-2.094;2023-05-09T08:55:32;100261.76;;;19.33;49.66
73242;BME280;65659;49.234;-2.094;2023-05-09T08:57:58;100258.91;;;19.18;49.46
73242;BME280;65659;49.234;-2.094;2023-05-09T09:00:25;100260.83;;;19.25;49.31
73242;BME280;65659;49.234;-2.094;2023-05-09T09:02:49;100261.30;;;19.20;49.38
73242;BME280;65659;49.234;-2.094;2023-05-09T09:05:15;100265.90;;;19.20;49.44
73242;BME280;65659;49.234;-2.094;2023-05-09T09:07:41;100260.49;;;19.48;49.26
73242;BME280;65659;49.234;-2.094;2023-05-09T09:10:10;100258.19;;;19.52;49.12
73242;BME280;65659;49.234;-2.094;2023-05-09T09:12:33;100255.68;;;19.25;49.28
73242;BME280;65659;49.234;-2.094;2023-05-09T09:15:03;100258.65;;;19.28;49.29
73242;BME280;65659;49.234;-2.094;2023-05-09T09:17:25;100260.48;;;19.56;49.52
73242;BME280;65659;49.234;-2.094;2023-05-09T09:19:54;100268.39;;;19.33;49.79
73242;BME280;65659;49.234;-2.094;2023-05-09T09:22:18;100267.93;;;19.29;49.52
73242;BME280;65659;49.234;-2.094;2023-05-09T09:24:41;100271.05;;;19.43;49.13
73242;BME280;65659;49.234;-2.094;2023-05-09T09:27:07;100267.16;;;19.31;49.23
73242;BME280;65659;49.234;-2.094;2023-05-09T09:29:33;100265.87;;;19.41;49.48
73242;BME280;65659;49.234;-2.094;2023-05-09T09:32:01;100260.17;;;19.32;49.58
73242;BME280;65659;49.234;-2.094;2023-05-09T09:34:24;100265.09;;;19.26;49.67
73242;BME280;65659;49.234;-2.094;2023-05-09T09:36:50;100264.75;;;19.01;49.58
73242;BME280;65659;49.234;-2.094;2023-05-09T09:39:15;100270.02;;;19.15;49.45
73242;BME280;65659;49.234;-2.094;2023-05-09T09:41:41;100268.60;;;19.10;49.87
73242;BME280;65659;49.234;-2.094;2023-05-09T09:44:08;100272.48;;;19.02;49.98
73242;BME280;65659;49.234;-2.094;2023-05-09T09:46:41;100269.33;;;18.88;50.21
73242;BME280;65659;49.234;-2.094;2023-05-09T09:48:58;100271.09;;;18.94;50.07
73242;BME280;65659;49.234;-2.094;2023-05-09T09:51:26;100268.51;;;19.05;50.14
73242;BME280;65659;49.234;-2.094;2023-05-09T09:53:50;100265.02;;;18.97;50.40
73242;BME280;65659;49.234;-2.094;2023-05-09T09:56:16;100260.66;;;19.16;50.10
73242;BME280;65659;49.234;-2.094;2023-05-09T09:58:42;100259.73;;;19.13;50.33
73242;BME280;65659;49.234;-2.094;2023-05-09T10:01:09;100256.53;;;19.23;50.43
73242;BME280;65659;49.234;-2.094;2023-05-09T10:03:35;100254.43;;;19.12;50.61
73242;BME280;65659;49.234;-2.094;2023-05-09T10:06:00;100248.17;;;19.31;50.33
73242;BME280;65659;49.234;-2.094;2023-05-09T10:08:25;100246.82;;;19.18;50.81
73242;BME280;65659;49.234;-2.094;2023-05-09T10:10:50;100248.81;;;19.29;50.53
73242;BME280;65659;49.234;-2.094;2023-05-09T10:13:22;100249.17;;;19.32;50.38
73242;BME280;65659;49.234;-2.094;2023-05-09T10:15:42;100246.39;;;19.73;49.89
73242;BME280;65659;49.234;-2.094;2023-05-09T10:18:09;100245.18;;;19.60;49.82
73242;BME280;65659;49.234;-2.094;2023-05-09T10:20:34;100242.24;;;19.43;49.84
73242;BME280;65659;49.234;-2.094;2023-05-09T10:23:01;100235.90;;;19.48;49.66
73242;BME280;65659;49.234;-2.094;2023-05-09T10:25:36;100237.20;;;19.83;49.67
73242;BME280;65659;49.234;-2.094;2023-05-09T10:27:53;100229.64;;;19.54;49.69
73242;BME280;65659;49.234;-2.094;2023-05-09T10:30:18;100229.50;;;19.65;49.61
73242;BME280;65659;49.234;-2.094;2023-05-09T10:32:47;100232.46;;;19.70;49.71
73242;BME280;65659;49.234;-2.094;2023-05-09T10:35:10;100219.57;;;19.81;49.34
73242;BME280;65659;49.234;-2.094;2023-05-09T10:37:34;100220.77;;;20.13;49.28
73242;BME280;65659;49.234;-2.094;2023-05-09T10:40:00;100217.75;;;19.88;49.13
73242;BME280;65659;49.234;-2.094;2023-05-09T10:42:25;100225.55;;;19.78;48.99
73242;BME280;65659;49.234;-2.094;2023-05-09T10:44:51;100228.24;;;19.74;49.21
73242;BME280;65659;49.234;-2.094;2023-05-09T10:47:16;100226.55;;;19.45;49.49
73242;BME280;65659;49.234;-2.094;2023-05-09T10:49:43;100231.56;;;19.47;49.37
73242;BME280;65659;49.234;-2.094;2023-05-09T10:52:08;100229.36;;;19.40;49.55
73242;BME280;65659;49.234;-2.094;2023-05-09T10:54:35;100231.26;;;19.59;49.75
73242;BME280;65659;49.234;-2.094;2023-05-09T10:57:00;100230.21;;;19.64;49.86
73242;BME280;65659;49.234;-2.094;2023-05-09T10:59:33;100232.92;;;19.57;50.00
73242;BME280;65659;49.234;-2.094;2023-05-09T11:01:56;100232.02;;;19.44;50.07
73242;BME280;65659;49.234;-2.094;2023-05-09T11:04:17;100234.49;;;19.04;50.20
73242;BME280;65659;49.234;-2.094;2023-05-09T11:06:46;100229.47;;;19.34;50.07
73242;BME280;65659;49.234;-2.094;2023-05-09T11:11:39;100227.77;;;19.28;50.22
73242;BME280;65659;49.234;-2.094;2023-05-09T11:14:00;100221.98;;;19.34;50.28
73242;BME280;65659;49.234;-2.094;2023-05-09T11:16:26;100220.74;;;19.21;50.07
73242;BME280;65659;49.234;-2.094;2023-05-09T11:18:52;100221.25;;;19.31;50.05
73242;BME280;65659;49.234;-2.094;2023-05-09T11:21:19;100220.33;;;19.12;50.33
73242;BME280;65659;49.234;-2.094;2023-05-09T11:23:43;100219.60;;;18.83;50.72
73242;BME280;65659;49.234;-2.094;2023-05-09T11:26:09;100222.71;;;18.95;50.11
73242;BME280;65659;49.234;-2.094;2023-05-09T11:28:36;100221.45;;;18.90;50.50
73242;BME280;65659;49.234;-2.094;2023-05-09T11:31:10;100218.35;;;19.15;50.37
73242;BME280;65659;49.234;-2.094;2023-05-09T11:33:27;100221.76;;;19.25;50.38
73242;BME280;65659;49.234;-2.094;2023-05-09T11:38:20;100213.11;;;19.07;50.37
73242;BME280;65659;49.234;-2.094;2023-05-09T11:40:44;100213.69;;;19.32;50.17
73242;BME280;65659;49.234;-2.094;2023-05-09T11:43:09;100207.13;;;19.09;50.07
73242;BME280;65659;49.234;-2.094;2023-05-09T11:45:35;100201.18;;;19.23;50.29
73242;BME280;65659;49.234;-2.094;2023-05-09T11:48:08;100194.90;;;19.08;50.23
73242;BME280;65659;49.234;-2.094;2023-05-09T11:50:27;100187.32;;;19.49;50.05
73242;BME280;65659;49.234;-2.094;2023-05-09T11:52:52;100191.74;;;19.42;50.32
73242;BME280;65659;49.234;-2.094;2023-05-09T11:55:19;100186.63;;;18.83;50.54
73242;BME280;65659;49.234;-2.094;2023-05-09T11:57:45;100184.79;;;19.06;50.53
73242;BME280;65659;49.234;-2.094;2023-05-09T12:00:11;100185.30;;;19.45;50.49
73242;BME280;65659;49.234;-2.094;2023-05-09T12:02:35;100178.63;;;19.52;50.17
73242;BME280;65659;49.234;-2.094;2023-05-09T12:05:09;100177.69;;;19.66;50.57
73242;BME280;65659;49.234;-2.094;2023-05-09T12:07:27;100178.89;;;19.32;50.52
73242;BME280;65659;49.234;-2.094;2023-05-09T12:09:52;100177.08;;;19.67;50.28
73242;BME280;65659;49.234;-2.094;2023-05-09T12:12:17;100176.92;;;19.13;50.22
73242;BME280;65659;49.234;-2.094;2023-05-09T12:14:43;100167.69;;;19.52;49.97
73242;BME280;65659;49.234;-2.094;2023-05-09T12:17:09;100168.54;;;19.72;49.97
73242;BME280;65659;49.234;-2.094;2023-05-09T12:19:35;100168.95;;;20.00;50.16
73242;BME280;65659;49.234;-2.094;2023-05-09T12:22:01;100164.03;;;19.83;49.88
73242;BME280;65659;49.234;-2.094;2023-05-09T12:24:27;100165.57;;;19.99;49.66
73242;BME280;65659;49.234;-2.094;2023-05-09T12:26:52;100168.15;;;19.69;49.71
73242;BME280;65659;49.234;-2.094;2023-05-09T12:29:18;100160.63;;;19.63;49.50
73242;BME280;65659;49.234;-2.094;2023-05-09T12:31:43;100158.21;;;19.57;49.14
73242;BME280;65659;49.234;-2.094;2023-05-09T12:34:08;100158.29;;;20.15;49.08
73242;BME280;65659;49.234;-2.094;2023-05-09T12:36:34;100159.08;;;19.28;49.51